createdAt,value
2017-07-17T00:01:39.560Z,15.60
2017-07-17T00:04:07.082Z,14.67
2017-07-17T00:06:34.529Z,15.27
2017-07-17T00:09:01.991Z,15.00
2017-07-17T00:11:29.517Z,14.40
2017-07-17T00:13:57.018Z,14.40
2017-07-17T00:16:24.464Z,14.17
2017-07-17T00:18:52.130Z,14.17
2017-07-17T00:21:19.589Z,14.63
2017-07-17T00:23:47.057Z,14.43
2017-07-17T00:26:14.757Z,14.53
2017-07-17T00:28:42.398Z,14.47
2017-07-17T00:31:09.933Z,13.97
2017-07-17T00:33:37.383Z,14.60
2017-07-17T00:36:05.014Z,14.30
2017-07-17T00:38:32.491Z,13.93
2017-07-17T00:40:59.996Z,16.77
2017-07-17T00:43:27.543Z,15.43
2017-07-17T00:45:55.100Z,15.60
2017-07-17T00:48:22.668Z,15.40
2017-07-17T00:50:50.135Z,15.87
2017-07-17T00:53:17.583Z,16.70
2017-07-17T00:55:45.103Z,17.80
2017-07-17T00:58:12.675Z,16.00
2017-07-17T01:00:40.118Z,18.20
2017-07-17T01:03:07.655Z,18.37
2017-07-17T01:05:35.153Z,17.17
2017-07-17T01:08:02.653Z,16.57
2017-07-17T01:10:30.160Z,18.00
2017-07-17T01:12:57.665Z,16.07
2017-07-17T01:15:25.166Z,17.23
2017-07-17T01:17:52.672Z,16.17
2017-07-17T01:20:20.136Z,17.40
2017-07-17T01:22:47.583Z,17.73
2017-07-17T01:25:15.104Z,17.33
2017-07-17T01:27:42.620Z,17.13
2017-07-17T01:30:10.127Z,17.33
2017-07-17T01:32:37.656Z,16.73
2017-07-17T01:35:05.152Z,17.70
2017-07-17T01:37:32.871Z,17.50
2017-07-17T01:40:00.399Z,17.93
2017-07-17T01:42:27.843Z,16.60
2017-07-17T01:44:55.314Z,18.87
2017-07-17T01:47:23.171Z,18.43
2017-07-17T01:49:50.636Z,20.50
2017-07-17T01:52:18.181Z,18.30
2017-07-17T01:54:45.737Z,17.70
2017-07-17T01:57:13.208Z,18.43
2017-07-17T01:59:40.716Z,18.27
2017-07-17T02:02:08.201Z,18.00
2017-07-17T02:04:35.684Z,18.63
2017-07-17T02:07:03.227Z,17.47
2017-07-17T02:09:30.784Z,17.43
2017-07-17T02:11:58.353Z,18.80
2017-07-17T02:14:25.800Z,18.27
2017-07-17T02:16:53.320Z,19.00
2017-07-17T02:19:20.807Z,18.37
2017-07-17T02:21:48.380Z,16.07
2017-07-17T02:24:15.969Z,14.23
2017-07-17T02:26:43.455Z,15.93
2017-07-17T02:29:10.933Z,15.30
2017-07-17T02:31:38.392Z,15.80
2017-07-17T02:34:05.845Z,14.60
2017-07-17T02:36:33.327Z,15.60
2017-07-17T02:39:00.864Z,16.20
2017-07-17T02:41:28.328Z,15.67
2017-07-17T02:43:55.799Z,15.47
2017-07-17T02:46:23.248Z,15.77
2017-07-17T02:48:50.689Z,14.00
2017-07-17T02:51:18.227Z,14.90
2017-07-17T02:53:45.707Z,13.40
2017-07-17T02:56:13.272Z,14.50
2017-07-17T02:58:40.740Z,14.60
2017-07-17T03:01:08.520Z,13.07
2017-07-17T03:03:35.973Z,13.30
2017-07-17T03:06:03.547Z,14.10
2017-07-17T03:08:31.061Z,13.87
2017-07-17T03:10:58.525Z,12.90
2017-07-17T03:13:26.101Z,13.00
2017-07-17T03:15:53.618Z,10.83
2017-07-17T03:18:21.149Z,11.17
2017-07-17T03:20:48.611Z,9.80
2017-07-17T03:23:16.171Z,10.07
2017-07-17T03:25:43.684Z,10.70
2017-07-17T03:28:11.224Z,10.23
2017-07-17T03:30:38.755Z,9.97
2017-07-17T03:33:06.289Z,9.40
2017-07-17T03:35:34.540Z,9.30
2017-07-17T03:38:02.274Z,10.40
2017-07-17T03:40:29.832Z,10.73
2017-07-17T03:42:57.433Z,9.50
2017-07-17T03:45:25.069Z,12.23
2017-07-17T03:47:52.753Z,10.80
2017-07-17T03:50:20.498Z,12.13
2017-07-17T03:52:48.098Z,12.40
2017-07-17T03:55:15.662Z,10.70
2017-07-17T03:57:43.260Z,10.17
2017-07-17T04:00:10.737Z,9.40
2017-07-17T04:02:38.191Z,10.10
2017-07-17T04:05:05.771Z,9.80
2017-07-17T04:07:33.296Z,5.47
2017-07-17T04:10:00.810Z,5.40
2017-07-17T04:12:29.048Z,5.37
2017-07-17T04:14:57.448Z,4.33
2017-07-17T04:17:25.018Z,4.20
2017-07-17T04:19:52.500Z,3.63
2017-07-17T04:22:20.053Z,3.63
2017-07-17T04:24:48.283Z,3.60
2017-07-17T04:27:16.486Z,3.77
2017-07-17T04:29:44.069Z,3.07
2017-07-17T04:32:11.543Z,3.27
2017-07-17T04:34:39.077Z,2.80
2017-07-17T04:37:06.616Z,3.10
2017-07-17T04:39:34.963Z,3.00
2017-07-17T04:42:04.285Z,2.60
2017-07-17T04:44:31.793Z,2.30
2017-07-17T04:46:59.284Z,2.40
2017-07-17T04:49:26.782Z,2.33
2017-07-17T04:51:55.137Z,2.00
2017-07-17T04:54:23.114Z,2.30
2017-07-17T04:56:50.765Z,1.83
2017-07-17T04:59:18.459Z,2.03
2017-07-17T05:01:47.717Z,2.30
2017-07-17T05:04:15.804Z,2.20
2017-07-17T05:06:44.132Z,2.80
2017-07-17T05:09:11.668Z,2.63
2017-07-17T05:11:39.236Z,2.90
2017-07-17T05:14:06.759Z,7.60
2017-07-17T05:16:34.330Z,4.57
2017-07-17T05:19:01.819Z,4.07
2017-07-17T05:21:29.336Z,4.53
2017-07-17T05:23:56.807Z,4.30
2017-07-17T05:26:25.124Z,4.93
2017-07-17T05:28:52.647Z,5.40
2017-07-17T05:31:21.314Z,5.80
2017-07-17T05:33:48.954Z,6.67
2017-07-17T05:36:16.487Z,8.43
2017-07-17T05:38:43.997Z,7.87
2017-07-17T05:41:11.521Z,7.30
2017-07-17T05:43:39.045Z,8.43
2017-07-17T05:46:07.507Z,8.33
2017-07-17T05:48:35.924Z,7.77
2017-07-17T05:51:03.565Z,7.40
2017-07-17T05:53:31.052Z,9.07
2017-07-17T05:55:58.599Z,10.13
2017-07-17T05:58:26.596Z,9.67
2017-07-17T06:00:54.147Z,10.17
2017-07-17T06:03:21.756Z,9.00
2017-07-17T06:05:49.299Z,8.70
2017-07-17T06:08:21.631Z,8.90
2017-07-17T06:10:49.287Z,9.80
2017-07-17T06:13:16.871Z,9.73
2017-07-17T06:15:44.385Z,9.00
2017-07-17T06:18:11.967Z,8.97
2017-07-17T06:20:39.556Z,9.07
2017-07-17T06:23:07.443Z,10.10
2017-07-17T06:25:35.128Z,10.10
2017-07-17T06:28:02.812Z,10.67
2017-07-17T06:30:31.594Z,9.83
2017-07-17T06:33:03.287Z,11.70
2017-07-17T06:35:30.820Z,9.17
2017-07-17T06:37:58.354Z,9.60
2017-07-17T06:43:56.561Z,10.00
2017-07-17T06:46:24.089Z,11.17
2017-07-17T06:48:51.598Z,11.20
2017-07-17T06:51:19.107Z,11.90
2017-07-17T06:53:46.631Z,10.93
2017-07-17T06:56:14.534Z,12.13
2017-07-17T06:58:42.774Z,13.57
2017-07-17T07:01:10.338Z,11.80
2017-07-17T07:03:37.803Z,12.80
2017-07-17T07:06:05.311Z,13.47
2017-07-17T07:08:33.687Z,14.17
2017-07-17T07:11:01.290Z,15.80
2017-07-17T07:13:28.884Z,13.17
2017-07-17T07:15:56.461Z,15.10
2017-07-17T07:18:24.142Z,11.90
2017-07-17T07:20:51.658Z,14.00
2017-07-17T07:23:19.273Z,14.10
2017-07-17T07:25:46.736Z,13.70
2017-07-17T07:28:14.222Z,13.70
2017-07-17T07:30:41.709Z,14.13
2017-07-17T07:33:09.174Z,13.50
2017-07-17T07:35:36.659Z,13.93
2017-07-17T07:38:04.153Z,13.83
2017-07-17T07:40:31.699Z,13.30
2017-07-17T07:42:59.475Z,13.83
2017-07-17T07:45:26.980Z,13.40
2017-07-17T07:47:54.510Z,14.60
2017-07-17T07:50:21.999Z,12.60
2017-07-17T07:52:49.555Z,14.20
2017-07-17T07:55:17.213Z,12.50
2017-07-17T07:57:44.949Z,12.70
2017-07-17T08:00:12.800Z,13.60
2017-07-17T08:02:40.257Z,14.47
2017-07-17T08:05:07.832Z,12.43
2017-07-17T08:07:35.471Z,11.63
2017-07-17T08:10:03.148Z,11.60
2017-07-17T08:12:30.700Z,12.63
2017-07-17T08:14:58.331Z,13.50
2017-07-17T08:17:25.953Z,13.37
2017-07-17T08:19:53.572Z,13.10
2017-07-17T08:22:21.268Z,13.33
2017-07-17T08:24:49.036Z,12.77
2017-07-17T08:27:16.753Z,11.13
2017-07-17T08:29:44.583Z,12.67
2017-07-17T08:32:14.700Z,14.50
2017-07-17T08:34:42.359Z,15.03
2017-07-17T08:37:09.957Z,15.20
2017-07-17T08:39:38.166Z,17.00
2017-07-17T08:42:07.816Z,15.87
2017-07-17T08:44:36.138Z,12.77
2017-07-17T08:47:03.694Z,13.87
2017-07-17T08:49:31.770Z,14.60
2017-07-17T08:54:34.963Z,14.03
2017-07-17T08:57:03.619Z,13.90
2017-07-17T08:59:31.138Z,12.77
2017-07-17T09:01:58.759Z,12.03
2017-07-17T09:04:26.298Z,10.57
2017-07-17T09:06:54.078Z,11.40
2017-07-17T09:09:22.395Z,10.03
2017-07-17T09:11:50.067Z,10.30
2017-07-17T09:14:17.926Z,10.63
2017-07-17T09:16:46.312Z,11.80
2017-07-17T09:19:14.090Z,10.83
2017-07-17T09:21:41.832Z,12.30
2017-07-17T09:24:09.356Z,11.93
2017-07-17T09:26:36.957Z,12.37
2017-07-17T09:29:04.564Z,12.00
2017-07-17T09:31:32.917Z,13.00
2017-07-17T09:34:03.511Z,12.87
2017-07-17T09:36:31.092Z,13.10
2017-07-17T09:38:58.597Z,10.70
2017-07-17T09:41:27.167Z,9.70
2017-07-17T09:43:54.900Z,10.27
2017-07-17T09:46:22.587Z,8.93
2017-07-17T09:48:50.731Z,9.30
2017-07-17T09:51:19.445Z,10.63
2017-07-17T09:53:48.912Z,9.50
2017-07-17T09:56:16.580Z,10.03
2017-07-17T09:58:44.333Z,10.23
2017-07-17T10:01:12.178Z,10.47
2017-07-17T10:03:39.801Z,8.43
2017-07-17T10:06:07.954Z,7.70
2017-07-17T10:08:37.319Z,8.10
2017-07-17T10:11:05.842Z,9.30
2017-07-17T10:13:33.553Z,9.30
2017-07-17T10:16:02.130Z,9.60
2017-07-17T10:18:29.851Z,10.60
2017-07-17T10:20:57.443Z,10.30
2017-07-17T10:23:25.330Z,10.80
2017-07-17T10:25:54.242Z,10.20
2017-07-17T10:28:22.241Z,11.50
2017-07-17T10:30:49.749Z,9.10
2017-07-17T10:33:17.306Z,12.43
2017-07-17T10:35:45.110Z,9.60
2017-07-17T10:38:12.836Z,8.33
2017-07-17T10:40:40.624Z,8.50
2017-07-17T10:43:08.335Z,7.50
2017-07-17T10:45:35.838Z,7.60
2017-07-17T10:48:03.461Z,6.37
2017-07-17T10:50:31.018Z,6.83
2017-07-17T10:52:58.608Z,7.57
2017-07-17T10:55:26.265Z,5.73
2017-07-17T10:57:53.969Z,6.23
2017-07-17T11:00:21.891Z,6.00
2017-07-17T11:02:49.701Z,5.67
2017-07-17T11:05:17.495Z,6.57
2017-07-17T11:07:45.100Z,6.37
2017-07-17T11:10:12.652Z,7.20
2017-07-17T11:12:40.131Z,6.80
2017-07-17T11:15:08.214Z,5.70
2017-07-17T11:17:37.026Z,6.67
2017-07-17T11:20:05.015Z,6.37
2017-07-17T11:22:35.253Z,6.27
2017-07-17T11:25:02.863Z,6.00
2017-07-17T11:27:30.417Z,6.67
2017-07-17T11:30:00.204Z,5.77
2017-07-17T11:32:27.810Z,6.43
2017-07-17T11:34:57.198Z,6.00
2017-07-17T11:37:24.836Z,5.00
2017-07-17T11:39:52.401Z,4.27
2017-07-17T11:42:19.967Z,3.70
2017-07-17T11:44:47.486Z,3.80
2017-07-17T11:59:58.207Z,3.30
2017-07-17T12:02:27.263Z,3.27
2017-07-17T12:07:22.422Z,3.10
2017-07-17T12:09:49.910Z,3.07
2017-07-17T12:12:19.959Z,3.33
2017-07-17T12:14:47.421Z,2.63
2017-07-17T12:17:15.515Z,3.27
2017-07-17T12:19:43.171Z,3.10
2017-07-17T12:22:10.695Z,3.07
2017-07-17T12:24:38.741Z,3.57
2017-07-17T12:27:07.074Z,3.53
2017-07-17T12:29:34.516Z,2.87
2017-07-17T12:32:02.071Z,3.40
2017-07-17T12:34:29.645Z,3.10
2017-07-17T12:36:57.277Z,2.80
2017-07-17T12:39:24.773Z,3.07
2017-07-17T12:41:52.341Z,3.70
2017-07-17T12:44:20.721Z,3.20
2017-07-17T12:46:48.220Z,2.33
2017-07-17T12:49:15.790Z,2.80
2017-07-17T12:51:43.220Z,3.00
2017-07-17T12:54:11.610Z,3.10
2017-07-17T12:56:39.108Z,3.43
2017-07-17T12:59:06.755Z,2.80
2017-07-17T13:01:36.072Z,2.60
2017-07-17T13:04:04.952Z,3.70
2017-07-17T13:06:37.964Z,3.27
2017-07-17T13:09:06.939Z,2.17
2017-07-17T13:11:35.573Z,2.40
2017-07-17T13:14:03.710Z,3.43
2017-07-17T13:16:31.611Z,3.10
2017-07-17T13:19:00.277Z,3.20
2017-07-17T13:21:30.081Z,2.23
2017-07-17T13:23:57.808Z,2.10
2017-07-17T13:26:25.372Z,3.03
2017-07-17T13:28:53.324Z,3.17
2017-07-17T13:31:21.532Z,2.50
2017-07-17T13:33:49.251Z,2.23
2017-07-17T13:36:18.506Z,3.40
2017-07-17T13:38:46.044Z,3.17
2017-07-17T13:41:15.716Z,2.30
2017-07-17T13:43:43.692Z,2.90
2017-07-17T13:46:12.227Z,2.30
2017-07-17T13:48:40.505Z,3.77
2017-07-17T13:51:08.144Z,3.57
2017-07-17T13:53:35.957Z,4.00
2017-07-17T13:56:04.432Z,3.43
2017-07-17T13:58:32.055Z,2.70
2017-07-17T14:00:59.552Z,2.03
2017-07-17T14:03:27.337Z,2.10
2017-07-17T14:05:54.987Z,2.50
2017-07-17T14:08:22.542Z,2.50
2017-07-17T14:10:51.419Z,2.80
2017-07-17T14:13:19.219Z,2.40
2017-07-17T14:15:47.082Z,2.53
2017-07-17T14:18:14.826Z,2.67
2017-07-17T14:20:42.344Z,2.37
2017-07-17T14:23:09.897Z,2.13
2017-07-17T14:25:37.535Z,2.30
2017-07-17T14:30:39.961Z,2.70
2017-07-17T14:33:07.488Z,2.57
2017-07-17T14:35:35.760Z,2.00
2017-07-17T14:38:03.389Z,2.67
2017-07-17T14:40:31.145Z,3.57
2017-07-17T14:42:59.934Z,2.50
2017-07-17T14:45:27.622Z,2.60
2017-07-17T14:47:55.979Z,2.80
2017-07-17T14:50:24.549Z,2.57
2017-07-17T14:52:53.235Z,2.50
2017-07-17T14:55:20.707Z,2.27
2017-07-17T14:57:48.488Z,2.17
2017-07-17T15:00:17.238Z,3.37
2017-07-17T15:02:44.812Z,2.83
2017-07-17T15:05:12.780Z,3.50
2017-07-17T15:07:40.808Z,2.43
2017-07-17T15:10:09.164Z,2.90
2017-07-17T15:12:38.006Z,2.73
2017-07-17T15:15:07.540Z,2.10
2017-07-17T15:17:35.280Z,2.50
2017-07-17T15:20:04.091Z,2.50
2017-07-17T15:22:32.836Z,2.20
2017-07-17T15:25:01.369Z,2.20
2017-07-17T15:30:14.206Z,2.30
2017-07-17T15:32:42.204Z,2.20
2017-07-17T15:35:09.905Z,2.53
2017-07-17T15:37:38.489Z,2.10
2017-07-17T15:40:07.701Z,2.00
2017-07-17T15:42:35.459Z,2.00
2017-07-17T15:45:03.742Z,2.17
2017-07-17T15:47:32.326Z,2.07
2017-07-17T15:50:00.842Z,2.10
2017-07-17T15:52:28.612Z,2.00
2017-07-17T15:57:36.387Z,2.20
2017-07-17T16:00:04.277Z,2.00
2017-07-17T16:02:33.401Z,1.60
2017-07-17T16:05:02.293Z,2.00
2017-07-17T16:07:32.094Z,1.80
2017-07-17T16:10:02.472Z,1.60
2017-07-17T16:12:31.644Z,2.50
2017-07-17T16:15:01.533Z,2.90
2017-07-17T16:20:13.653Z,1.97
2017-07-17T16:22:54.073Z,2.10
2017-07-17T16:25:22.070Z,1.83
2017-07-17T16:27:50.489Z,2.20
2017-07-17T16:30:18.847Z,1.70
2017-07-17T16:32:47.382Z,2.10
2017-07-17T16:35:15.542Z,4.33
2017-07-17T16:37:46.710Z,2.17
2017-07-17T16:40:14.591Z,2.83
2017-07-17T16:42:42.132Z,2.87
2017-07-17T16:45:09.684Z,3.70
2017-07-17T16:47:37.473Z,1.90
2017-07-17T16:50:05.149Z,2.67
2017-07-17T16:52:32.868Z,2.00
2017-07-17T16:55:01.627Z,2.20
2017-07-17T16:57:29.179Z,1.97
2017-07-17T17:00:00.563Z,1.90
2017-07-17T17:02:28.097Z,1.90
2017-07-17T17:04:55.693Z,2.00
2017-07-17T17:07:24.190Z,1.80
2017-07-17T17:09:52.727Z,1.90
2017-07-17T17:12:21.474Z,2.70
2017-07-17T17:14:49.081Z,2.13
2017-07-17T17:17:18.027Z,1.90
2017-07-17T17:19:47.153Z,1.97
2017-07-17T17:22:14.980Z,1.80
2017-07-17T17:24:45.515Z,1.97
2017-07-17T17:27:13.561Z,1.90
2017-07-17T17:29:46.971Z,2.83
2017-07-17T17:32:14.528Z,2.40
2017-07-17T17:34:42.268Z,2.47
2017-07-17T17:37:11.129Z,1.90
2017-07-17T17:39:40.185Z,2.00
2017-07-17T17:42:08.765Z,2.60
2017-07-17T17:44:38.165Z,4.73
2017-07-17T17:47:06.232Z,2.77
2017-07-17T17:49:33.845Z,2.17
2017-07-17T17:52:02.493Z,2.27
2017-07-17T17:54:30.301Z,1.90
2017-07-17T17:56:57.853Z,1.87
2017-07-17T17:59:25.389Z,2.00
2017-07-17T18:01:56.360Z,2.10
2017-07-17T18:07:04.783Z,2.50
2017-07-17T18:09:32.546Z,2.30
2017-07-17T18:12:03.832Z,2.40
2017-07-17T18:14:31.903Z,2.47
2017-07-17T18:16:59.406Z,2.63
2017-07-17T18:19:28.177Z,3.27
2017-07-17T18:21:55.806Z,3.33
2017-07-17T18:24:23.490Z,3.40
2017-07-17T18:26:51.599Z,2.30
2017-07-17T18:29:20.801Z,6.30
2017-07-17T18:31:48.345Z,3.00
2017-07-17T18:34:16.061Z,2.30
2017-07-17T18:36:43.556Z,2.37
2017-07-17T18:39:11.032Z,3.40
2017-07-17T18:41:39.599Z,2.30
2017-07-17T18:44:07.128Z,2.40
2017-07-17T18:46:34.804Z,2.00
2017-07-17T18:49:02.442Z,2.20
2017-07-17T18:51:30.186Z,2.20
2017-07-17T18:53:57.709Z,1.97
2017-07-17T18:56:25.228Z,2.80
2017-07-17T18:58:52.734Z,2.97
2017-07-17T19:01:21.168Z,11.60
2017-07-17T19:03:48.896Z,2.30
2017-07-17T19:06:16.508Z,3.10
2017-07-17T19:08:44.001Z,2.80
2017-07-17T19:11:11.567Z,2.20
2017-07-17T19:13:39.243Z,2.07
2017-07-17T19:16:07.058Z,2.93
2017-07-17T19:18:34.540Z,1.90
2017-07-17T19:21:02.015Z,1.93
2017-07-17T19:23:29.515Z,2.47
2017-07-17T19:25:58.104Z,2.70
2017-07-17T19:28:25.621Z,3.13
2017-07-17T19:30:53.169Z,2.70
2017-07-17T19:33:21.611Z,2.60
2017-07-17T19:35:49.198Z,2.80
2017-07-17T19:38:16.905Z,3.07
2017-07-17T19:40:44.369Z,3.40
2017-07-17T19:43:12.239Z,2.90
2017-07-17T19:45:39.746Z,2.73
2017-07-17T19:48:07.450Z,2.97
2017-07-17T19:50:35.015Z,2.80
2017-07-17T19:53:02.493Z,2.60
2017-07-17T19:55:30.243Z,3.30
2017-07-17T19:57:58.476Z,2.30
2017-07-17T20:00:26.144Z,2.70
2017-07-17T20:02:54.918Z,3.10
2017-07-17T20:05:23.386Z,3.93
2017-07-17T20:07:51.064Z,4.80
2017-07-17T20:10:18.600Z,3.73
2017-07-17T20:12:46.094Z,2.60
2017-07-17T20:15:15.541Z,9.13
2017-07-17T20:17:43.264Z,5.10
2017-07-17T20:20:11.107Z,4.33
2017-07-17T20:22:38.907Z,3.60
2017-07-17T20:25:06.393Z,3.43
2017-07-17T20:27:35.367Z,4.57
2017-07-17T20:30:02.929Z,3.80
2017-07-17T20:32:30.674Z,3.67
2017-07-17T20:34:58.492Z,3.23
2017-07-17T20:37:27.243Z,4.27
2017-07-17T20:39:55.526Z,4.07
2017-07-17T20:42:23.367Z,4.47
2017-07-17T20:44:51.767Z,4.80
2017-07-17T20:47:19.393Z,4.40
2017-07-17T20:49:48.162Z,4.00
2017-07-17T20:52:15.679Z,3.77
2017-07-17T20:54:45.159Z,4.20
2017-07-17T20:57:12.883Z,3.87
2017-07-17T20:59:41.450Z,6.13
2017-07-17T21:02:08.928Z,4.30
2017-07-17T21:04:36.412Z,3.33
2017-07-17T21:07:04.309Z,3.90
2017-07-17T21:09:31.864Z,3.83
2017-07-17T21:11:59.328Z,4.03
2017-07-17T21:14:27.690Z,3.63
2017-07-17T21:16:56.197Z,4.63
2017-07-17T21:19:23.915Z,3.80
2017-07-17T21:21:52.857Z,5.90
2017-07-17T21:24:21.282Z,3.70
2017-07-17T21:26:49.055Z,3.07
2017-07-17T21:29:16.897Z,4.00
2017-07-17T21:31:44.905Z,3.50
2017-07-17T21:34:14.477Z,3.63
2017-07-17T21:36:43.107Z,3.40
2017-07-17T21:39:11.365Z,3.70
2017-07-17T21:41:39.223Z,3.30
2017-07-17T21:44:07.552Z,3.90
2017-07-17T21:46:35.123Z,4.13
2017-07-17T21:49:02.716Z,3.87
2017-07-17T21:51:30.247Z,4.00
2017-07-17T21:53:57.872Z,3.80
2017-07-17T21:56:25.637Z,4.20
2017-07-17T21:58:53.215Z,4.20
2017-07-17T22:01:20.729Z,4.00
2017-07-17T22:03:48.180Z,3.63
2017-07-17T22:06:16.573Z,3.63
2017-07-17T22:08:44.072Z,3.67
2017-07-17T22:11:11.563Z,3.80
2017-07-17T22:13:39.075Z,3.73
2017-07-17T22:16:07.610Z,3.57
2017-07-17T22:18:35.273Z,3.80
2017-07-17T22:21:02.787Z,3.47
2017-07-17T22:23:35.255Z,3.70
2017-07-17T22:26:04.062Z,3.17
2017-07-17T22:28:35.223Z,3.73
2017-07-17T22:31:03.357Z,3.43
2017-07-17T22:33:30.848Z,3.30
2017-07-17T22:35:58.580Z,3.40
2017-07-17T22:38:26.048Z,3.63
2017-07-17T22:40:53.593Z,3.10
2017-07-17T22:43:21.072Z,3.70
2017-07-17T22:45:48.535Z,3.40
2017-07-17T22:48:15.985Z,3.17
2017-07-17T22:50:43.505Z,3.20
2017-07-17T22:53:10.995Z,3.50
2017-07-17T22:55:38.501Z,3.63
2017-07-17T22:58:06.637Z,3.60
2017-07-17T23:00:34.170Z,3.90
2017-07-17T23:03:01.647Z,4.10
2017-07-17T23:05:29.969Z,4.43
2017-07-17T23:07:57.594Z,4.60
2017-07-17T23:10:25.142Z,4.53
2017-07-17T23:12:52.615Z,4.70
2017-07-17T23:15:20.148Z,4.33
2017-07-17T23:17:47.592Z,4.20
2017-07-17T23:20:15.140Z,4.90
2017-07-17T23:22:42.707Z,4.57
2017-07-17T23:25:10.173Z,4.00
2017-07-17T23:27:37.677Z,4.30
2017-07-17T23:30:05.269Z,4.07
2017-07-17T23:32:32.779Z,4.47
2017-07-17T23:35:00.329Z,4.70
2017-07-17T23:37:27.939Z,5.00
2017-07-17T23:39:55.384Z,4.60
2017-07-17T23:42:22.852Z,5.40
2017-07-17T23:44:50.752Z,5.40
2017-07-17T23:47:18.265Z,5.53
2017-07-17T23:49:48.619Z,5.40
2017-07-17T23:52:16.100Z,5.10
2017-07-17T23:54:43.600Z,4.90
2017-07-17T23:57:12.219Z,4.77
2017-07-17T23:59:39.966Z,4.30
